Time;durP1;ratioP1;P1;durP2;ratioP2;P2;SDS_P1;SDS_P2;PMS_P1;PMS_P2;Temp;Humidity;BMP_temperature;BMP_pressure;BME280_temperature;BME280_humidity;BME280_pressure;Samples;Min_cycle;Max_cycle;Signal;HPM_P1;HPM_P2
2024/01/12 00:00:55;;;;;;;17.15;13.25;;;8.30;99.90;;;;;;4964301;28;20395;-86
2024/01/12 00:03:22;;;;;;;21.02;13.50;;;8.20;99.90;;;;;;4965007;28;20023;-86
2024/01/12 00:05:50;;;;;;;16.33;12.80;;;8.20;99.90;;;;;;4955171;28;20042;-87
2024/01/12 00:08:17;;;;;;;18.10;13.07;;;8.20;99.90;;;;;;4956792;28;20042;-86
2024/01/12 00:10:43;;;;;;;17.15;13.30;;;8.20;99.90;;;;;;4958877;28;20034;-89
2024/01/12 00:13:13;;;;;;;14.93;11.73;;;8.20;99.90;;;;;;4961855;28;20030;-87
2024/01/12 00:15:39;;;;;;;19.15;12.68;;;8.20;99.90;;;;;;4970720;28;20078;-86
2024/01/12 00:18:06;;;;;;;15.60;12.27;;;8.20;99.90;;;;;;4980670;28;20042;-87
2024/01/12 00:20:33;;;;;;;15.65;12.27;;;8.10;99.90;;;;;;4983396;28;20069;-87
2024/01/12 00:22:59;;;;;;;16.42;12.73;;;8.10;99.90;;;;;;4983210;28;20015;-86
2024/01/12 00:25:26;;;;;;;17.73;12.25;;;8.10;99.90;;;;;;4999625;28;20099;-87
2024/01/12 00:27:52;;;;;;;18.48;12.82;;;8.10;99.90;;;;;;4967602;28;20041;-87
2024/01/12 00:30:18;;;;;;;18.48;12.90;;;8.10;99.90;;;;;;4978340;28;20069;-87
2024/01/12 00:32:48;;;;;;;16.60;12.25;;;8.10;99.90;;;;;;4986486;28;20011;-87
2024/01/12 00:35:14;;;;;;;14.98;12.13;;;8.00;99.90;;;;;;4986570;28;20057;-88
2024/01/12 00:37:41;;;;;;;16.48;12.77;;;8.10;99.90;;;;;;4965110;28;20515;-87
2024/01/12 00:40:08;;;;;;;17.60;12.65;;;8.20;99.90;;;;;;4961501;28;20474;-88
2024/01/12 00:42:35;;;;;;;15.57;11.80;;;8.20;99.90;;;;;;4961718;28;20019;-87
2024/01/12 00:45:03;;;;;;;15.57;12.10;;;8.10;99.90;;;;;;4961596;28;20034;-88
2024/01/12 00:47:30;;;;;;;16.73;12.27;;;8.10;99.90;;;;;;4961396;28;20029;-87
2024/01/12 00:49:57;;;;;;;15.35;11.32;;;8.10;99.90;;;;;;4961588;28;20061;-87
2024/01/12 00:52:23;;;;;;;15.50;11.80;;;8.10;99.90;;;;;;4961300;28;20050;-88
2024/01/12 00:54:49;;;;;;;15.32;11.77;;;8.10;99.90;;;;;;4961316;28;20098;-88
2024/01/12 00:57:16;;;;;;;15.02;11.70;;;8.10;99.90;;;;;;4961550;28;20052;-88
2024/01/12 00:59:42;;;;;;;14.50;12.02;;;8.10;99.90;;;;;;4975685;28;20510;-88
2024/01/12 01:02:08;;;;;;;13.63;11.23;;;8.10;99.90;;;;;;4976979;28;20447;-87
2024/01/12 01:04:35;;;;;;;14.88;11.38;;;8.10;99.90;;;;;;4993571;28;20026;-87
2024/01/12 01:07:01;;;;;;;12.40;10.68;;;8.10;99.90;;;;;;4961225;28;20050;-88
2024/01/12 01:09:27;;;;;;;13.65;11.38;;;8.10;99.90;;;;;;4993606;28;20031;-87
2024/01/12 01:11:54;;;;;;;16.35;11.63;;;8.10;99.90;;;;;;4993289;28;20113;-87
2024/01/12 01:14:24;;;;;;;15.70;12.23;;;8.10;99.90;;;;;;4993444;28;20499;-88
2024/01/12 01:16:52;;;;;;;21.02;12.27;;;8.10;99.90;;;;;;4993211;28;20036;-87
2024/01/12 01:19:20;;;;;;;17.95;13.13;;;8.00;99.90;;;;;;4977235;28;20049;-87
2024/01/12 01:21:46;;;;;;;17.90;13.55;;;8.00;99.90;;;;;;4996589;28;20030;-87
2024/01/12 01:24:12;;;;;;;17.15;12.20;;;8.00;99.90;;;;;;4983349;28;20112;-87
2024/01/12 01:26:39;;;;;;;14.68;12.45;;;7.90;99.90;;;;;;4980908;28;20026;-87
2024/01/12 01:29:05;;;;;;;16.77;12.25;;;7.80;99.90;;;;;;4980723;28;20054;-87
2024/01/12 01:31:33;;;;;;;17.95;12.43;;;7.80;99.90;;;;;;4981027;28;20034;-88
2024/01/12 01:33:59;;;;;;;17.98;11.23;;;7.70;99.90;;;;;;4980741;28;20038;-87
2024/01/12 01:36:25;;;;;;;13.52;10.95;;;7.70;99.90;;;;;;4964781;28;20027;-87
2024/01/12 01:38:52;;;;;;;19.40;12.07;;;7.60;99.90;;;;;;4980818;28;20033;-87
2024/01/12 01:41:18;;;;;;;18.52;12.00;;;7.60;99.90;;;;;;4978641;28;20059;-87
2024/01/12 01:43:47;;;;;;;18.23;11.30;;;7.60;99.90;;;;;;4981068;28;20389;-88
2024/01/12 01:46:14;;;;;;;15.25;10.77;;;7.60;99.90;;;;;;4980923;28;20041;-87
2024/01/12 01:48:40;;;;;;;15.48;10.55;;;7.60;99.90;;;;;;4964567;28;20030;-88
2024/01/12 01:51:06;;;;;;;21.55;11.25;;;7.50;99.90;;;;;;4979870;28;20656;-87
2024/01/12 01:53:33;;;;;;;13.70;10.48;;;7.50;99.90;;;;;;4980353;28;20034;-88
2024/01/12 01:56:02;;;;;;;16.95;11.30;;;7.50;99.90;;;;;;4980527;28;20038;-88
2024/01/12 01:58:28;;;;;;;14.23;10.48;;;7.40;99.90;;;;;;4980541;28;20026;-87
2024/01/12 02:00:55;;;;;;;15.80;10.30;;;7.50;99.90;;;;;;4981861;28;20030;-88
2024/01/12 02:03:22;;;;;;;13.20;9.95;;;7.50;99.90;;;;;;4983624;28;20026;-87
2024/01/12 02:05:50;;;;;;;18.25;10.07;;;7.50;99.90;;;;;;4983676;28;20030;-88
2024/01/12 02:08:16;;;;;;;13.98;10.10;;;7.50;99.90;;;;;;4983457;28;20091;-87
2024/01/12 02:10:43;;;;;;;12.55;10.18;;;7.50;99.90;;;;;;4984455;28;20487;-88
2024/01/12 02:13:12;;;;;;;13.43;10.27;;;7.60;99.90;;;;;;4980668;28;20104;-87
2024/01/12 02:15:42;;;;;;;16.15;9.95;;;7.60;99.90;;;;;;4980388;28;20038;-88
2024/01/12 02:18:08;;;;;;;12.70;9.68;;;7.70;99.90;;;;;;4988322;28;20022;-88
2024/01/12 02:20:34;;;;;;;13.80;10.38;;;7.60;99.90;;;;;;4983393;28;20033;-88
2024/01/12 02:23:04;;;;;;;16.48;10.43;;;7.70;99.90;;;;;;4983277;28;20026;-88
2024/01/12 02:25:30;;;;;;;15.35;9.80;;;7.70;99.90;;;;;;4983292;28;20026;-87
2024/01/12 02:27:57;;;;;;;15.80;10.65;;;7.70;99.90;;;;;;4983477;28;20037;-87
2024/01/12 02:30:23;;;;;;;13.85;9.98;;;7.70;99.90;;;;;;4983094;28;20056;-87
2024/01/12 02:32:50;;;;;;;15.85;10.40;;;7.60;99.90;;;;;;4983020;28;20029;-88
2024/01/12 02:35:16;;;;;;;13.75;10.20;;;7.60;99.90;;;;;;4981773;28;20050;-87
2024/01/12 02:37:42;;;;;;;15.75;10.30;;;7.70;99.90;;;;;;4979627;28;20053;-88
2024/01/12 02:40:09;;;;;;;14.23;10.30;;;7.70;99.90;;;;;;4996182;28;20030;-87
2024/01/12 02:42:35;;;;;;;17.40;10.80;;;7.70;99.90;;;;;;4979780;28;20142;-88
2024/01/12 02:45:05;;;;;;;15.85;10.90;;;7.80;99.90;;;;;;4995857;28;20387;-87
2024/01/12 02:47:31;;;;;;;16.42;10.20;;;7.80;99.90;;;;;;4979729;28;20026;-87
2024/01/12 02:50:01;;;;;;;13.02;10.32;;;7.90;99.90;;;;;;4995714;28;20029;-88
2024/01/12 02:52:27;;;;;;;15.32;9.98;;;7.90;99.90;;;;;;4979348;28;20121;-87
2024/01/12 02:54:53;;;;;;;16.05;10.85;;;7.80;99.90;;;;;;4995624;28;20185;-88
2024/01/12 02:57:20;;;;;;;16.85;10.90;;;7.90;99.90;;;;;;4979901;28;20030;-87
2024/01/12 02:59:46;;;;;;;13.13;10.65;;;7.90;99.90;;;;;;4995665;28;20034;-88
2024/01/12 03:02:12;;;;;;;15.52;10.52;;;7.90;99.90;;;;;;4979396;28;20030;-88
2024/01/12 03:04:39;;;;;;;13.98;10.45;;;7.90;99.90;;;;;;4995876;28;20540;-89
2024/01/12 03:07:07;;;;;;;16.00;10.60;;;7.80;99.90;;;;;;4995948;28;20042;-88
2024/01/12 03:09:33;;;;;;;15.43;10.65;;;7.80;99.90;;;;;;4988048;28;20054;-87
2024/01/12 03:12:00;;;;;;;14.95;11.23;;;7.80;99.90;;;;;;4963180;28;20033;-88
2024/01/12 03:14:29;;;;;;;15.20;10.63;;;7.80;99.90;;;;;;4964585;28;20088;-88
2024/01/12 03:16:57;;;;;;;13.05;10.45;;;7.70;99.90;;;;;;4980682;28;20196;-88
2024/01/12 03:19:23;;;;;;;15.43;10.38;;;7.70;99.90;;;;;;4963809;28;20027;-88
2024/01/12 03:21:49;;;;;;;15.95;10.73;;;7.70;99.90;;;;;;4985662;28;20062;-88
2024/01/12 03:24:15;;;;;;;17.52;11.15;;;7.70;99.90;;;;;;4982073;28;20034;-89
2024/01/12 03:26:42;;;;;;;17.40;10.88;;;7.60;99.90;;;;;;4983656;28;20057;-89
2024/01/12 03:29:08;;;;;;;16.85;11.05;;;7.50;99.90;;;;;;4982950;28;20399;-88
2024/01/12 03:31:35;;;;;;;18.08;11.07;;;7.50;99.90;;;;;;4982097;28;20072;-89
2024/01/12 03:34:02;;;;;;;23.23;11.68;;;7.40;99.90;;;;;;4983090;28;20056;-89
2024/01/12 03:36:29;;;;;;;23.20;11.27;;;7.40;99.90;;;;;;4982057;28;20030;-88
2024/01/12 03:38:55;;;;;;;22.83;12.07;;;7.40;99.90;;;;;;4982237;28;20113;-88
2024/01/12 03:41:22;;;;;;;19.13;11.13;;;7.40;99.90;;;;;;4981821;28;20030;-89
2024/01/12 03:43:48;;;;;;;22.05;12.52;;;7.40;99.90;;;;;;4981545;28;20026;-89
2024/01/12 03:46:15;;;;;;;25.25;11.23;;;7.40;99.90;;;;;;4981600;28;20057;-88
2024/01/12 03:48:41;;;;;;;24.75;11.68;;;7.40;99.90;;;;;;4981780;28;20104;-88
2024/01/12 03:51:08;;;;;;;22.42;11.63;;;7.40;99.90;;;;;;4981718;28;20057;-89
2024/01/12 03:53:35;;;;;;;23.13;11.50;;;7.40;99.90;;;;;;4978231;28;20105;-88
2024/01/12 03:56:01;;;;;;;27.55;11.18;;;7.40;99.90;;;;;;4962293;28;20449;-88
2024/01/12 03:58:27;;;;;;;21.40;11.45;;;7.40;99.90;;;;;;4962085;28;20050;-89
2024/01/12 04:00:56;;;;;;;23.98;10.82;;;7.50;99.90;;;;;;4962486;28;20050;-89
2024/01/12 04:03:22;;;;;;;23.23;11.35;;;7.50;99.90;;;;;;4963103;28;20040;-91
2024/01/12 04:05:49;;;;;;;24.00;10.85;;;7.50;99.90;;;;;;4963355;28;20034;-91
2024/01/12 04:08:17;;;;;;;25.13;11.15;;;7.60;99.90;;;;;;4963064;28;20387;-90
2024/01/12 04:10:43;;;;;;;22.17;11.38;;;7.60;99.90;;;;;;4962087;28;20030;-91
2024/01/12 04:13:10;;;;;;;21.35;10.45;;;7.70;99.90;;;;;;4970728;28;20479;-90
2024/01/12 04:15:48;;;;;;;21.02;10.50;;;7.70;99.90;;;;;;4982115;28;20041;-90
2024/01/12 04:18:16;;;;;;;24.52;10.18;;;7.80;99.90;;;;;;4981505;28;20022;-91
2024/01/12 04:20:42;;;;;;;24.00;10.57;;;7.90;99.90;;;;;;4981900;28;20025;-92
2024/01/12 04:23:09;;;;;;;18.02;10.20;;;8.00;99.90;;;;;;4978763;28;20022;-92
2024/01/12 04:25:35;;;;;;;22.15;10.65;;;8.00;99.90;;;;;;4965516;28;20141;-92
2024/01/12 04:28:02;;;;;;;23.23;10.60;;;8.10;99.90;;;;;;4963024;28;20121;-91
2024/01/12 04:30:28;;;;;;;20.70;10.80;;;8.10;99.90;;;;;;4952532;28;20131;-91
2024/01/12 04:32:55;;;;;;;23.48;10.88;;;8.10;99.90;;;;;;4944290;28;20102;-91
2024/01/12 04:35:21;;;;;;;20.02;10.73;;;8.10;99.90;;;;;;4960409;28;20039;-92
2024/01/12 04:37:47;;;;;;;24.13;11.70;;;8.00;99.90;;;;;;4948660;28;20022;-90
2024/01/12 04:40:14;;;;;;;22.30;11.52;;;8.00;99.90;;;;;;4979864;28;20041;-90
2024/01/12 04:42:41;;;;;;;22.45;11.60;;;8.00;99.90;;;;;;4974406;28;20026;-90
2024/01/12 04:45:08;;;;;;;21.67;11.07;;;8.10;99.90;;;;;;4995756;28;20046;-90
2024/01/12 04:47:34;;;;;;;21.55;10.85;;;8.00;99.90;;;;;;4974980;28;20495;-89
2024/01/12 04:50:01;;;;;;;22.70;11.73;;;8.10;99.90;;;;;;4982159;28;20030;-90
2024/01/12 04:52:27;;;;;;;24.63;11.40;;;8.10;99.90;;;;;;4984146;28;20122;-90
2024/01/12 04:54:54;;;;;;;23.10;10.98;;;8.10;99.90;;;;;;4964654;28;20061;-90
2024/01/12 04:57:20;;;;;;;27.95;11.63;;;8.10;99.90;;;;;;4961142;28;20026;-90
2024/01/12 04:59:49;;;;;;;23.08;11.57;;;8.10;99.90;;;;;;4961455;28;20034;-91
2024/01/12 05:02:16;;;;;;;25.83;11.10;;;8.10;99.90;;;;;;4961870;28;20030;-91
2024/01/12 05:04:42;;;;;;;27.30;11.75;;;8.00;99.90;;;;;;4967543;28;20027;-90
2024/01/12 05:07:08;;;;;;;23.27;11.27;;;8.10;99.90;;;;;;4974067;28;20030;-91
2024/01/12 05:09:35;;;;;;;24.65;11.23;;;8.10;99.90;;;;;;4958059;28;20051;-91
2024/01/12 05:12:04;;;;;;;18.67;10.55;;;8.10;99.90;;;;;;4974529;28;20218;-85
2024/01/12 05:14:32;;;;;;;25.98;11.38;;;8.10;99.90;;;;;;4961149;28;20128;-90
2024/01/12 05:16:59;;;;;;;25.92;10.48;;;8.10;99.90;;;;;;4961158;28;20037;-91
2024/01/12 05:19:28;;;;;;;26.40;11.43;;;8.20;99.90;;;;;;4961206;28;20392;-89
2024/01/12 05:21:55;;;;;;;22.48;10.65;;;8.10;99.90;;;;;;4957798;28;20034;-89
2024/01/12 05:24:21;;;;;;;24.98;10.88;;;8.10;99.90;;;;;;4957883;28;20484;-89
2024/01/12 05:26:48;;;;;;;21.65;10.43;;;8.20;99.90;;;;;;4958057;28;20440;-90
2024/01/12 05:29:14;;;;;;;21.08;10.32;;;8.20;99.90;;;;;;4960487;28;20034;-89
2024/01/12 05:31:45;;;;;;;18.55;10.15;;;8.20;99.90;;;;;;4993310;28;20475;-88
2024/01/12 05:34:11;;;;;;;23.40;10.77;;;8.20;99.90;;;;;;4977196;28;20043;-88
2024/01/12 05:36:38;;;;;;;21.98;10.95;;;8.10;99.90;;;;;;4960859;28;20018;-89
2024/01/12 05:39:05;;;;;;;21.13;10.00;;;8.10;99.90;;;;;;4979914;28;20042;-89
2024/01/12 05:41:32;;;;;;;23.50;11.18;;;8.10;99.90;;;;;;4979883;28;20022;-89
2024/01/12 05:43:58;;;;;;;19.55;10.57;;;8.00;99.90;;;;;;4963287;28;20030;-89
2024/01/12 05:46:25;;;;;;;22.98;10.43;;;8.00;99.90;;;;;;4965936;28;20488;-92
2024/01/12 05:48:52;;;;;;;21.40;10.70;;;8.00;99.90;;;;;;4962063;28;20031;-88
2024/01/12 05:51:18;;;;;;;22.65;11.73;;;7.90;99.90;;;;;;4978035;28;20386;-88
2024/01/12 05:53:46;;;;;;;21.70;10.85;;;7.80;99.90;;;;;;4994126;28;20117;-88
2024/01/12 05:56:15;;;;;;;18.33;10.48;;;7.80;99.90;;;;;;4961776;28;20026;-88
2024/01/12 05:58:42;;;;;;;26.40;11.48;;;7.70;99.90;;;;;;4977908;28;20032;-88
2024/01/12 06:01:08;;;;;;;23.02;11.45;;;7.70;99.90;;;;;;4961427;28;20502;-88
2024/01/12 06:03:35;;;;;;;22.65;11.30;;;7.60;99.90;;;;;;4960748;28;20026;-88
2024/01/12 06:06:01;;;;;;;24.42;12.88;;;7.50;99.90;;;;;;4960573;28;20058;-88
2024/01/12 06:08:28;;;;;;;29.25;12.85;;;7.60;99.90;;;;;;4960681;28;20035;-88
2024/01/12 06:10:55;;;;;;;24.17;12.52;;;7.60;99.90;;;;;;4964707;28;20034;-87
2024/01/12 06:13:21;;;;;;;27.10;12.90;;;7.60;99.90;;;;;;4964285;28;20057;-87
2024/01/12 06:15:47;;;;;;;26.48;13.00;;;7.60;99.90;;;;;;4963966;28;20044;-88
2024/01/12 06:18:14;;;;;;;30.42;13.02;;;7.50;99.90;;;;;;4964062;28;20042;-88
2024/01/12 06:20:40;;;;;;;26.85;13.00;;;7.50;99.90;;;;;;4964107;28;20037;-88
2024/01/12 06:23:06;;;;;;;26.23;12.93;;;7.50;99.90;;;;;;4964237;28;20480;-88
2024/01/12 06:25:36;;;;;;;25.88;13.07;;;7.50;99.90;;;;;;4963952;28;20022;-88
2024/01/12 06:28:04;;;;;;;23.88;11.93;;;7.50;99.90;;;;;;4964150;28;20113;-88
2024/01/12 06:30:31;;;;;;;25.50;11.90;;;7.50;99.90;;;;;;4951278;28;20408;-89
2024/01/12 06:32:59;;;;;;;22.95;12.20;;;7.50;99.90;;;;;;4944703;28;20034;-88
2024/01/12 06:35:27;;;;;;;25.40;11.82;;;7.50;99.90;;;;;;4950269;28;20031;-90
2024/01/12 06:38:10;;;;;;;28.75;12.88;;;7.50;99.90;;;;;;4949666;28;20393;-92
2024/01/12 06:40:40;;;;;;;31.95;14.80;;;7.60;99.90;;;;;;4954044;28;20435;-89
2024/01/12 06:43:09;;;;;;;29.95;13.27;;;7.60;99.90;;;;;;4972368;28;20026;-89
2024/01/12 06:45:36;;;;;;;28.90;13.20;;;7.60;99.90;;;;;;4959781;28;20031;-87
2024/01/12 06:48:02;;;;;;;45.42;14.48;;;7.70;99.90;;;;;;4944931;28;20559;-88
2024/01/12 06:50:29;;;;;;;31.80;13.13;;;7.80;99.90;;;;;;4962597;28;20034;-88
2024/01/12 06:52:56;;;;;;;28.30;12.50;;;8.10;99.90;;;;;;4944520;28;20027;-87
2024/01/12 06:55:23;;;;;;;35.40;12.43;;;8.20;99.90;;;;;;4960237;28;20121;-87
2024/01/12 06:57:50;;;;;;;23.20;12.38;;;8.40;99.90;;;;;;4944403;28;20388;-88
2024/01/12 07:00:17;;;;;;;25.25;13.02;;;8.70;99.90;;;;;;4960339;28;20068;-87
2024/01/12 07:02:43;;;;;;;31.45;15.63;;;9.00;99.90;;;;;;4952667;28;20073;-87
2024/01/12 07:05:10;;;;;;;28.73;15.98;;;9.10;99.90;;;;;;4963460;28;20495;-87
2024/01/12 07:07:40;;;;;;;36.63;18.77;;;9.30;99.90;;;;;;4963312;28;20125;-88
2024/01/12 07:10:08;;;;;;;36.63;20.85;;;9.20;99.90;;;;;;4963894;28;20030;-87
2024/01/12 07:12:35;;;;;;;35.63;19.75;;;9.10;99.90;;;;;;4963263;28;20483;-88
2024/01/12 07:15:02;;;;;;;39.55;21.58;;;9.10;99.90;;;;;;4963102;28;20158;-88
2024/01/12 07:17:28;;;;;;;32.35;21.00;;;9.00;99.90;;;;;;4965111;28;20023;-88
2024/01/12 07:19:55;;;;;;;41.25;21.90;;;9.20;99.90;;;;;;4943904;28;20030;-87
2024/01/12 07:22:21;;;;;;;32.75;20.33;;;9.20;99.90;;;;;;4975346;28;20030;-87
2024/01/12 07:24:48;;;;;;;37.80;19.75;;;9.20;99.90;;;;;;4943798;28;20122;-87
2024/01/12 07:27:15;;;;;;;34.22;20.35;;;9.20;99.90;;;;;;4950146;28;20081;-85
2024/01/12 07:29:42;;;;;;;29.50;19.50;;;9.20;99.90;;;;;;4965264;28;20058;-87
2024/01/12 07:32:11;;;;;;;30.98;19.25;;;9.20;99.90;;;;;;4982006;28;20026;-87
2024/01/12 07:34:39;;;;;;;38.95;20.75;;;9.20;99.90;;;;;;4998196;28;20041;-87
2024/01/12 07:37:05;;;;;;;28.60;19.20;;;9.20;99.90;;;;;;4982097;28;20036;-87
2024/01/12 07:39:32;;;;;;;26.90;19.00;;;9.50;99.90;;;;;;4979216;28;20026;-86
2024/01/12 07:41:59;;;;;;;30.40;20.17;;;9.70;99.90;;;;;;4965093;28;20061;-86
2024/01/12 07:44:25;;;;;;;34.35;23.00;;;10.00;99.90;;;;;;4999862;28;20056;-87
2024/01/12 07:46:51;;;;;;;27.42;22.05;;;10.20;99.90;;;;;;4981892;28;20030;-87
2024/01/12 07:49:18;;;;;;;27.95;22.98;;;10.30;99.90;;;;;;4978338;28;20080;-87
2024/01/12 07:51:45;;;;;;;42.10;24.55;;;10.50;99.90;;;;;;4978343;28;20031;-86
2024/01/12 07:54:11;;;;;;;34.80;25.17;;;10.40;99.90;;;;;;4962055;28;20034;-87
2024/01/12 07:56:37;;;;;;;32.33;24.95;;;10.70;99.90;;;;;;4961844;28;20109;-86
2024/01/12 07:59:04;;;;;;;36.10;25.85;;;10.80;99.90;;;;;;4973139;28;20076;-87
2024/01/12 08:01:30;;;;;;;37.58;25.25;;;10.90;99.90;;;;;;4981094;28;20022;-86
2024/01/12 08:03:57;;;;;;;48.90;25.25;;;11.10;99.90;;;;;;4981190;28;20071;-87
2024/01/12 08:06:23;;;;;;;35.92;23.90;;;11.30;99.90;;;;;;4980290;28;20040;-88
2024/01/12 08:08:49;;;;;;;39.10;24.20;;;11.30;99.90;;;;;;4971044;28;20041;-87
2024/01/12 08:11:16;;;;;;;28.40;24.45;;;11.50;99.90;;;;;;4984528;28;20026;-87
2024/01/12 08:13:42;;;;;;;28.17;24.02;;;11.60;99.90;;;;;;4979383;28;20152;-86
2024/01/12 08:16:09;;;;;;;39.35;24.88;;;11.60;99.90;;;;;;4980564;28;20084;-86
2024/01/12 08:18:36;;;;;;;26.92;22.67;;;11.80;99.90;;;;;;4990048;28;20022;-87
2024/01/12 08:21:02;;;;;;;24.75;22.23;;;11.80;99.90;;;;;;4987419;28;20395;-86
2024/01/12 08:23:29;;;;;;;26.52;22.50;;;11.70;99.90;;;;;;4977708;28;20479;-87
2024/01/12 08:25:55;;;;;;;25.50;21.33;;;11.80;99.90;;;;;;4977012;28;20034;-86
2024/01/12 08:28:22;;;;;;;28.65;22.90;;;11.80;99.90;;;;;;4977398;28;20052;-87
2024/01/12 08:30:49;;;;;;;24.90;20.98;;;11.70;99.90;;;;;;4948994;28;20046;-86
2024/01/12 08:33:15;;;;;;;23.77;19.40;;;11.80;99.90;;;;;;4942245;28;20058;-87
2024/01/12 08:35:42;;;;;;;22.13;18.67;;;11.80;99.90;;;;;;4970717;28;20045;-86
2024/01/12 08:38:09;;;;;;;21.88;19.65;;;11.60;99.90;;;;;;4963431;28;20496;-87
2024/01/12 08:40:35;;;;;;;20.48;18.48;;;11.60;99.90;;;;;;4959516;28;20031;-89
2024/01/12 08:43:02;;;;;;;20.27;18.25;;;11.90;99.90;;;;;;4959137;28;20027;-87
2024/01/12 08:45:29;;;;;;;20.92;18.83;;;12.20;99.90;;;;;;4943384;28;20078;-89
2024/01/12 08:47:58;;;;;;;20.75;18.85;;;12.30;99.90;;;;;;4943712;28;20146;-89
2024/01/12 08:50:25;;;;;;;21.00;18.90;;;12.50;99.90;;;;;;4957248;28;20030;-87
2024/01/12 08:52:52;;;;;;;20.40;18.48;;;12.30;99.90;;;;;;4958350;28;20089;-87
2024/01/12 08:55:18;;;;;;;21.25;19.15;;;12.00;99.90;;;;;;4957649;28;20050;-86
2024/01/12 08:57:45;;;;;;;20.17;18.08;;;11.90;99.90;;;;;;4964709;28;20046;-88
2024/01/12 09:00:12;;;;;;;21.95;18.15;;;11.80;99.90;;;;;;4957631;28;20031;-87
2024/01/12 09:02:40;;;;;;;20.40;17.52;;;11.60;99.90;;;;;;4957939;28;20126;-87
2024/01/12 09:05:11;;;;;;;20.30;18.15;;;11.50;99.90;;;;;;4941882;28;20066;-86
2024/01/12 09:07:38;;;;;;;19.60;17.60;;;11.30;99.90;;;;;;4961478;28;20412;-86
2024/01/12 09:10:06;;;;;;;23.15;17.55;;;11.10;99.90;;;;;;4941823;28;20118;-87
2024/01/12 09:12:32;;;;;;;23.33;18.58;;;11.10;99.90;;;;;;4956691;28;20031;-86
2024/01/12 09:14:59;;;;;;;19.45;17.65;;;11.20;99.90;;;;;;4957282;28;20180;-88
2024/01/12 09:17:26;;;;;;;19.80;17.80;;;11.30;99.90;;;;;;4941578;28;20033;-86
2024/01/12 09:19:53;;;;;;;20.13;17.70;;;11.30;99.90;;;;;;4957707;28;20023;-86
2024/01/12 09:22:20;;;;;;;22.15;18.23;;;11.30;99.90;;;;;;4961775;28;20109;-86
2024/01/12 09:24:46;;;;;;;21.58;18.52;;;11.40;99.90;;;;;;4960846;28;20035;-86
2024/01/12 09:27:12;;;;;;;20.77;18.45;;;11.40;99.90;;;;;;4960720;28;20034;-86
2024/01/12 09:29:41;;;;;;;21.85;19.63;;;11.70;99.90;;;;;;4960430;28;20046;-86
2024/01/12 09:32:10;;;;;;;23.20;19.48;;;11.90;99.90;;;;;;4961659;28;20045;-85
2024/01/12 09:34:44;;;;;;;20.95;18.75;;;12.10;99.90;;;;;;4967032;28;20053;-86
2024/01/12 09:37:11;;;;;;;20.73;18.58;;;12.10;99.90;;;;;;4959571;28;20026;-85
2024/01/12 09:39:37;;;;;;;24.27;18.63;;;11.90;99.90;;;;;;4941396;28;20039;-85
2024/01/12 09:42:08;;;;;;;21.02;18.45;;;11.70;99.90;;;;;;4951210;28;20422;-86
2024/01/12 09:44:39;;;;;;;20.27;18.17;;;11.60;99.90;;;;;;4961279;28;20093;-86
2024/01/12 09:47:05;;;;;;;21.00;18.58;;;11.60;99.90;;;;;;4960886;28;20031;-85
2024/01/12 09:49:32;;;;;;;20.25;18.35;;;11.60;99.90;;;;;;4977025;28;20047;-85
2024/01/12 09:52:01;;;;;;;21.30;18.10;;;11.60;99.90;;;;;;4960866;28;20623;-85
2024/01/12 09:54:28;;;;;;;18.27;16.35;;;11.50;99.90;;;;;;4967024;28;20030;-88
2024/01/12 09:56:58;;;;;;;17.92;16.38;;;11.50;99.90;;;;;;4974365;28;20026;-86
2024/01/12 09:59:27;;;;;;;19.08;17.13;;;11.50;99.90;;;;;;4973431;28;20049;-88
2024/01/12 10:01:54;;;;;;;18.90;17.40;;;11.60;99.90;;;;;;4971065;28;20484;-87
2024/01/12 10:04:21;;;;;;;20.27;18.60;;;11.80;99.90;;;;;;4969245;28;20030;-87
2024/01/12 10:06:52;;;;;;;20.55;18.95;;;11.80;99.90;;;;;;4970247;28;20051;-87
2024/01/12 10:09:20;;;;;;;22.23;20.40;;;11.90;99.90;;;;;;4964716;28;20033;-89
2024/01/12 10:11:47;;;;;;;21.60;19.65;;;12.20;99.90;;;;;;4964603;28;20041;-89
2024/01/12 10:14:25;;;;;;;22.25;20.40;;;12.50;99.90;;;;;;4964764;28;20041;-88
2024/01/12 10:17:00;;;;;;;21.30;19.70;;;12.50;99.90;;;;;;4965168;28;20023;-89
2024/01/12 10:19:28;;;;;;;22.15;20.42;;;12.60;99.90;;;;;;4962575;28;20030;-86
2024/01/12 10:21:55;;;;;;;22.77;21.08;;;12.20;99.90;;;;;;4947413;28;20126;-88
2024/01/12 10:24:22;;;;;;;22.60;20.83;;;11.90;99.90;;;;;;4981709;28;20039;-86
2024/01/12 10:26:51;;;;;;;22.15;20.50;;;11.80;99.90;;;;;;4978846;28;20051;-86
2024/01/12 10:29:18;;;;;;;22.80;21.10;;;12.00;99.90;;;;;;4972919;28;20046;-88
2024/01/12 10:31:45;;;;;;;22.50;20.95;;;12.50;99.90;;;;;;4972908;28;20026;-87
2024/01/12 10:34:14;;;;;;;23.75;21.52;;;12.60;99.90;;;;;;4964957;28;20026;-87
2024/01/12 10:36:41;;;;;;;23.02;21.13;;;12.30;99.90;;;;;;4980655;28;20030;-87
2024/01/12 10:39:12;;;;;;;23.58;21.67;;;12.30;99.90;;;;;;5011100;28;20040;-88
2024/01/12 10:41:41;;;;;;;22.73;21.08;;;12.30;99.90;;;;;;4980939;28;20053;-87
2024/01/12 10:44:09;;;;;;;23.10;21.30;;;12.10;99.90;;;;;;4964359;28;20041;-88
2024/01/12 10:46:47;;;;;;;23.17;21.40;;;11.80;99.90;;;;;;4964549;28;20031;-86
2024/01/12 10:49:20;;;;;;;24.50;22.02;;;11.60;99.90;;;;;;4977032;28;20082;-86
2024/01/12 10:52:13;;;;;;;24.60;22.63;;;11.50;99.90;;;;;;4982046;28;20041;-86
2024/01/12 10:54:51;;;;;;;23.38;21.85;;;11.90;99.90;;;;;;4980832;28;20506;-86
2024/01/12 10:57:18;;;;;;;24.38;22.65;;;12.20;99.90;;;;;;4979909;28;20030;-86
2024/01/12 10:59:44;;;;;;;24.95;23.13;;;12.20;99.90;;;;;;5015438;28;20372;-87
2024/01/12 11:02:13;;;;;;;25.60;23.48;;;12.20;99.90;;;;;;4984289;28;20372;-88
2024/01/12 11:04:46;;;;;;;26.23;24.00;;;12.10;99.90;;;;;;4984242;28;20025;-87
2024/01/12 11:07:19;;;;;;;25.52;23.63;;;12.00;99.90;;;;;;4981002;28;20061;-87
2024/01/12 11:09:56;;;;;;;25.33;23.55;;;12.10;99.90;;;;;;4964591;28;20081;-87
2024/01/12 11:13:05;;;;;;;25.55;23.73;;;12.00;99.90;;;;;;4966524;28;20026;-87
2024/01/12 11:15:53;;;;;;;26.83;24.63;;;12.00;99.90;;;;;;4977009;28;20030;-87
2024/01/12 11:19:25;;;;;;;25.85;24.05;;;12.20;99.90;;;;;;4971335;28;20022;-87
2024/01/12 11:23:06;;;;;;;25.42;23.42;;;12.20;99.90;;;;;;4990727;28;20069;-90
2024/01/12 11:26:20;;;;;;;25.05;23.40;;;12.60;99.90;;;;;;5015484;28;20064;-91
2024/01/12 11:29:01;;;;;;;26.27;24.10;;;12.50;99.90;;;;;;4998751;28;20034;-90
2024/01/12 11:31:36;;;;;;;27.30;25.15;;;12.20;99.90;;;;;;5003085;28;20042;-90
2024/01/12 11:34:07;;;;;;;29.13;27.27;;;12.20;99.90;;;;;;4984067;28;20030;-89
2024/01/12 11:36:35;;;;;;;33.15;30.95;;;12.20;99.90;;;;;;4963042;28;20491;-89
2024/01/12 11:39:04;;;;;;;32.75;30.58;;;12.10;99.90;;;;;;4962938;28;20022;-89
2024/01/12 13:03:04;;;;;;;37.38;34.78;;;11.80;99.90;;;;;;4978548;23;20047;-87
2024/01/12 13:05:36;;;;;;;37.38;34.95;;;11.90;99.90;;;;;;4961112;28;20542;-88
2024/01/12 13:08:05;;;;;;;37.13;34.65;;;12.00;99.90;;;;;;4958952;28;20129;-86
2024/01/12 13:10:31;;;;;;;38.53;35.53;;;12.00;99.90;;;;;;4958120;28;20085;-86
2024/01/12 13:13:00;;;;;;;37.88;35.38;;;11.90;99.90;;;;;;4959044;28;20038;-88
2024/01/12 13:15:26;;;;;;;37.17;34.80;;;11.90;99.90;;;;;;4958630;28;20495;-87
2024/01/12 13:17:56;;;;;;;37.45;34.85;;;11.70;99.90;;;;;;4959123;28;20029;-90
2024/01/12 13:20:23;;;;;;;36.97;34.63;;;11.70;99.90;;;;;;4964000;28;20030;-89
2024/01/12 13:23:00;;;;;;;;;;;;;;;;;;;;;
2024/01/12 13:25:45;;;;;;;37.15;34.65;;;11.80;99.90;;;;;;4986276;28;20117;-93
2024/01/12 13:28:11;;;;;;;38.58;35.78;;;11.70;99.90;;;;;;4968484;28;20038;-91
2024/01/12 13:30:39;;;;;;;37.35;34.50;;;11.70;99.90;;;;;;4968625;28;20507;-89
2024/01/12 13:33:06;;;;;;;37.47;34.92;;;11.70;99.90;;;;;;4967573;28;20487;-90
2024/01/12 13:35:33;;;;;;;36.58;34.47;;;11.60;99.90;;;;;;4966508;28;20045;-91
2024/01/12 13:37:59;;;;;;;38.05;35.67;;;11.70;99.90;;;;;;4966225;28;20098;-82
2024/01/12 13:40:26;;;;;;;38.67;36.10;;;11.60;99.90;;;;;;5000730;28;20490;-91
2024/01/12 13:42:53;;;;;;;38.55;35.88;;;11.60;99.90;;;;;;4968758;28;20030;-92
2024/01/12 13:45:20;;;;;;;38.80;36.33;;;11.50;99.90;;;;;;4968857;28;20033;-92
2024/01/12 13:47:46;;;;;;;38.10;35.67;;;11.50;99.90;;;;;;4968365;28;20038;-88
2024/01/12 13:50:13;;;;;;;38.38;35.58;;;11.40;99.90;;;;;;4984477;28;20026;-88
2024/01/12 13:52:40;;;;;;;38.08;35.65;;;11.50;99.90;;;;;;4971197;28;20034;-88
2024/01/12 13:55:07;;;;;;;37.28;35.00;;;11.40;99.90;;;;;;4977485;28;20038;-87
2024/01/12 13:57:33;;;;;;;37.58;35.05;;;11.40;99.90;;;;;;4968019;28;20030;-86
2024/01/12 14:00:00;;;;;;;38.50;35.75;;;11.40;99.90;;;;;;4969226;28;20085;-85